createdAt,value
2018-02-21T00:00:36.488Z,0
2018-02-21T00:01:38.140Z,0
2018-02-21T00:02:39.796Z,0
2018-02-21T00:03:41.451Z,0
2018-02-21T00:04:43.095Z,0
2018-02-21T00:05:44.740Z,0
2018-02-21T00:06:46.414Z,0
2018-02-21T00:07:48.059Z,0
2018-02-21T00:08:49.714Z,0
2018-02-21T00:09:51.360Z,0
2018-02-21T00:10:53.012Z,0
2018-02-21T00:11:54.657Z,0
2018-02-21T00:12:56.301Z,0
2018-02-21T00:13:57.991Z,0
2018-02-21T00:14:59.632Z,0
2018-02-21T00:16:01.284Z,0
2018-02-21T00:17:02.917Z,0
2018-02-21T00:18:04.565Z,0
2018-02-21T00:19:06.217Z,0
2018-02-21T00:20:07.861Z,0
2018-02-21T00:21:09.509Z,0
2018-02-21T00:22:11.160Z,0
2018-02-21T00:23:12.809Z,0
2018-02-21T00:24:14.472Z,0
2018-02-21T00:25:16.108Z,0
2018-02-21T00:26:17.755Z,0
2018-02-21T00:27:19.408Z,0
2018-02-21T00:28:21.060Z,0
2018-02-21T00:29:22.700Z,0
2018-02-21T00:30:24.340Z,0
2018-02-21T00:31:25.990Z,0
2018-02-21T00:32:27.637Z,0
2018-02-21T00:33:29.277Z,0
2018-02-21T00:34:30.927Z,0
2018-02-21T00:35:32.586Z,0
2018-02-21T00:36:34.237Z,0
2018-02-21T00:37:35.882Z,0
2018-02-21T00:38:37.533Z,0
2018-02-21T00:39:39.182Z,0
2018-02-21T00:40:40.830Z,0
2018-02-21T00:41:42.474Z,0
2018-02-21T00:42:44.112Z,0
2018-02-21T00:43:45.779Z,0
2018-02-21T00:44:47.423Z,0
2018-02-21T00:45:49.069Z,0
2018-02-21T00:46:50.708Z,0
2018-02-21T00:47:52.353Z,0
2018-02-21T00:48:54.006Z,0
2018-02-21T00:49:55.656Z,0
2018-02-21T00:50:57.307Z,0
2018-02-21T00:51:58.987Z,0
2018-02-21T00:53:00.615Z,0
2018-02-21T00:54:02.257Z,0
2018-02-21T00:55:03.901Z,0
2018-02-21T00:56:05.541Z,0
2018-02-21T00:57:07.194Z,0
2018-02-21T00:58:08.845Z,0
2018-02-21T00:59:10.505Z,0
2018-02-21T01:00:12.146Z,0
2018-02-21T01:01:13.793Z,0
2018-02-21T01:02:15.436Z,0
2018-02-21T01:03:17.076Z,0
2018-02-21T01:04:18.733Z,0
2018-02-21T01:05:20.388Z,0
2018-02-21T01:06:22.034Z,0
2018-02-21T01:07:23.766Z,0
2018-02-21T01:08:25.417Z,0
2018-02-21T01:09:27.119Z,0
2018-02-21T01:10:28.772Z,0
2018-02-21T01:11:30.418Z,0
2018-02-21T01:12:32.066Z,0
2018-02-21T01:13:33.721Z,0
2018-02-21T01:14:35.365Z,0
2018-02-21T01:15:37.016Z,0
2018-02-21T01:16:38.668Z,0
2018-02-21T01:17:40.316Z,0
2018-02-21T01:18:41.972Z,0
2018-02-21T01:19:43.655Z,0
2018-02-21T01:20:45.309Z,0
2018-02-21T01:21:46.959Z,0
2018-02-21T01:22:48.619Z,0
2018-02-21T01:23:50.322Z,0
2018-02-21T01:24:51.988Z,0
2018-02-21T01:25:53.649Z,0
2018-02-21T01:26:55.308Z,0
2018-02-21T01:27:56.975Z,0
2018-02-21T01:28:58.629Z,0
2018-02-21T01:30:00.284Z,0
2018-02-21T01:31:01.944Z,0
2018-02-21T01:32:03.604Z,0
2018-02-21T01:33:05.251Z,0
2018-02-21T01:34:06.905Z,0
2018-02-21T01:35:08.553Z,0
2018-02-21T01:36:10.200Z,0
2018-02-21T01:37:11.850Z,0
2018-02-21T01:38:13.507Z,0
2018-02-21T01:39:15.158Z,0
2018-02-21T01:40:16.805Z,0
2018-02-21T01:41:18.459Z,0
2018-02-21T01:42:20.113Z,0
2018-02-21T01:43:21.774Z,0
2018-02-21T01:44:23.424Z,0
2018-02-21T01:45:25.087Z,0
2018-02-21T01:46:26.734Z,0
2018-02-21T01:47:28.390Z,0
2018-02-21T01:48:30.044Z,0
2018-02-21T01:49:31.685Z,0
2018-02-21T01:50:33.341Z,0
2018-02-21T01:51:34.988Z,0
2018-02-21T01:52:36.641Z,0
2018-02-21T01:53:38.293Z,0
2018-02-21T01:54:39.939Z,0
2018-02-21T01:55:41.590Z,0
2018-02-21T01:56:43.248Z,0
2018-02-21T01:57:44.894Z,0
2018-02-21T01:58:46.546Z,0
2018-02-21T01:59:48.196Z,0
2018-02-21T02:00:49.849Z,0
2018-02-21T02:01:51.502Z,0
2018-02-21T02:02:53.153Z,0
2018-02-21T02:03:54.812Z,0
2018-02-21T02:04:56.471Z,0
2018-02-21T02:05:58.118Z,0
2018-02-21T02:06:59.800Z,0
2018-02-21T02:08:01.447Z,0
2018-02-21T02:09:03.099Z,0
2018-02-21T02:10:04.748Z,0
2018-02-21T02:11:06.389Z,0
2018-02-21T02:12:08.051Z,0
2018-02-21T02:13:09.700Z,0
2018-02-21T02:14:11.360Z,0
2018-02-21T02:15:13.013Z,0
2018-02-21T02:16:14.664Z,0
2018-02-21T02:17:16.315Z,0
2018-02-21T02:18:17.958Z,0
2018-02-21T02:19:19.606Z,0
2018-02-21T02:20:21.255Z,0
2018-02-21T02:21:22.898Z,0
2018-02-21T02:22:24.546Z,0
2018-02-21T02:23:26.199Z,0
2018-02-21T02:24:27.904Z,0
2018-02-21T02:25:29.552Z,0
2018-02-21T02:26:31.207Z,0
2018-02-21T02:27:32.854Z,0
2018-02-21T02:28:34.517Z,0
2018-02-21T02:29:36.169Z,0
2018-02-21T02:30:37.823Z,0
2018-02-21T02:31:39.478Z,0
2018-02-21T02:32:41.117Z,0
2018-02-21T02:33:42.771Z,0
2018-02-21T02:34:44.415Z,0
2018-02-21T02:35:46.054Z,0
2018-02-21T02:36:47.703Z,0
2018-02-21T02:37:49.362Z,0
2018-02-21T02:38:51.009Z,0
2018-02-21T02:39:52.646Z,0
2018-02-21T02:40:54.279Z,0
2018-02-21T02:41:55.931Z,0
2018-02-21T02:42:57.572Z,0
2018-02-21T02:43:59.223Z,0
2018-02-21T02:45:00.884Z,0
2018-02-21T02:46:02.522Z,0
2018-02-21T02:47:04.179Z,0
2018-02-21T02:48:05.830Z,0
2018-02-21T02:49:07.463Z,0
2018-02-21T02:50:09.116Z,0
2018-02-21T02:51:10.760Z,0
2018-02-21T02:52:12.399Z,0
2018-02-21T02:53:14.055Z,0
2018-02-21T02:54:15.701Z,0
2018-02-21T02:55:17.347Z,0
2018-02-21T03:01:06.288Z,0
2018-02-21T03:02:07.925Z,0
2018-02-21T03:03:59.860Z,0
2018-02-21T03:05:01.513Z,0
2018-02-21T03:06:53.424Z,0
2018-02-21T03:07:55.076Z,0
2018-02-21T03:09:47.014Z,0
2018-02-21T03:10:48.666Z,0
2018-02-21T03:12:40.567Z,0
2018-02-21T03:13:42.218Z,0
2018-02-21T03:15:34.133Z,0
2018-02-21T03:16:35.788Z,0
2018-02-21T03:18:27.710Z,0
2018-02-21T03:19:29.353Z,0
2018-02-21T03:21:21.384Z,0
2018-02-21T03:22:23.038Z,0
2018-02-21T03:24:14.958Z,0
2018-02-21T03:25:16.605Z,0
2018-02-21T03:27:08.516Z,0
2018-02-21T03:28:10.167Z,0
2018-02-21T03:29:11.819Z,0
2018-02-21T03:30:13.471Z,0
2018-02-21T03:31:15.121Z,0
2018-02-21T03:32:16.773Z,0
2018-02-21T03:33:18.428Z,0
2018-02-21T03:34:20.065Z,0
2018-02-21T03:35:21.716Z,0
2018-02-21T03:36:23.368Z,0
2018-02-21T03:37:25.022Z,0
2018-02-21T03:38:26.670Z,0
2018-02-21T03:39:28.315Z,0
2018-02-21T03:40:29.967Z,0
2018-02-21T03:41:31.626Z,0
2018-02-21T03:42:33.283Z,0
2018-02-21T03:43:34.934Z,0
2018-02-21T03:44:36.579Z,0
2018-02-21T03:45:38.228Z,0
2018-02-21T03:46:39.876Z,0
2018-02-21T03:47:41.529Z,0
2018-02-21T03:48:43.176Z,0
2018-02-21T03:49:44.823Z,0
2018-02-21T03:50:46.474Z,0
2018-02-21T03:51:48.113Z,0
2018-02-21T03:52:49.763Z,0
2018-02-21T03:53:51.415Z,0
2018-02-21T03:54:53.054Z,0
2018-02-21T03:55:54.718Z,0
2018-02-21T03:56:56.359Z,0
2018-02-21T03:57:58.009Z,0
2018-02-21T03:58:59.657Z,0
2018-02-21T04:00:01.300Z,0
2018-02-21T04:01:02.963Z,0
2018-02-21T04:02:04.606Z,0
2018-02-21T04:03:06.263Z,0
2018-02-21T04:04:07.914Z,0
2018-02-21T04:05:09.556Z,0
2018-02-21T04:06:11.209Z,0
2018-02-21T04:07:12.859Z,0
2018-02-21T04:08:14.507Z,0
2018-02-21T04:09:16.196Z,0
2018-02-21T04:10:17.847Z,0
2018-02-21T04:11:19.500Z,0
2018-02-21T04:12:21.136Z,0
2018-02-21T04:13:22.795Z,0
2018-02-21T04:14:24.435Z,0
2018-02-21T04:15:26.090Z,0
2018-02-21T04:16:27.747Z,0
2018-02-21T04:17:29.398Z,0
2018-02-21T04:18:31.048Z,0
2018-02-21T04:19:32.700Z,0
2018-02-21T04:20:34.343Z,0
2018-02-21T04:21:36.002Z,0
2018-02-21T04:22:37.647Z,0
2018-02-21T04:23:39.299Z,0
2018-02-21T04:24:40.946Z,0
2018-02-21T04:25:42.599Z,0
2018-02-21T04:26:44.241Z,0
2018-02-21T04:27:45.888Z,0
2018-02-21T04:28:47.540Z,0
2018-02-21T04:29:49.197Z,0
2018-02-21T04:30:50.838Z,0
2018-02-21T04:31:52.488Z,0
2018-02-21T04:32:54.134Z,0
2018-02-21T04:33:55.780Z,0
2018-02-21T04:34:57.428Z,0
2018-02-21T04:35:59.068Z,0
2018-02-21T04:37:00.716Z,0
2018-02-21T04:38:02.354Z,0
2018-02-21T04:39:04.008Z,0
2018-02-21T04:40:05.660Z,0
2018-02-21T04:41:07.307Z,0
2018-02-21T04:42:08.958Z,0
2018-02-21T04:43:10.606Z,0
2018-02-21T04:44:12.261Z,0
2018-02-21T04:45:13.930Z,0
2018-02-21T04:46:15.576Z,0
2018-02-21T04:47:17.222Z,0
2018-02-21T04:48:18.877Z,0
2018-02-21T04:49:20.563Z,0
2018-02-21T04:50:22.167Z,0
2018-02-21T04:51:23.822Z,0
2018-02-21T04:52:25.560Z,0
2018-02-21T04:53:27.214Z,0
2018-02-21T04:54:28.854Z,0
2018-02-21T04:55:30.498Z,0
2018-02-21T04:56:32.143Z,0
2018-02-21T04:57:33.798Z,0
2018-02-21T04:58:35.454Z,0
2018-02-21T04:59:37.102Z,0
2018-02-21T05:00:38.792Z,0
2018-02-21T05:01:40.402Z,0
2018-02-21T05:02:42.046Z,0
2018-02-21T05:03:43.682Z,0
2018-02-21T05:04:45.339Z,0
2018-02-21T05:05:46.982Z,0
2018-02-21T05:06:48.619Z,0
2018-02-21T05:07:50.276Z,0
2018-02-21T05:08:51.929Z,0
2018-02-21T05:09:53.563Z,0
2018-02-21T05:10:55.215Z,0
2018-02-21T05:11:56.870Z,0
2018-02-21T05:12:58.511Z,0
2018-02-21T05:14:00.169Z,0
2018-02-21T05:15:01.839Z,0
2018-02-21T05:16:03.503Z,0
2018-02-21T05:17:05.151Z,0
2018-02-21T05:18:06.803Z,0
2018-02-21T05:19:08.469Z,0
2018-02-21T05:20:10.132Z,0
2018-02-21T05:21:11.797Z,0
2018-02-21T05:22:13.439Z,0
2018-02-21T05:23:15.088Z,0
2018-02-21T05:24:16.735Z,0
2018-02-21T05:25:18.384Z,0
2018-02-21T05:26:20.051Z,0
2018-02-21T05:27:21.702Z,0
2018-02-21T05:28:23.354Z,0
2018-02-21T05:29:25.001Z,0
2018-02-21T05:30:26.648Z,0
2018-02-21T05:31:28.292Z,0
2018-02-21T05:32:29.935Z,0
2018-02-21T05:33:31.585Z,0
2018-02-21T05:34:33.238Z,0
2018-02-21T05:35:34.890Z,0
2018-02-21T05:36:36.565Z,0
2018-02-21T05:37:38.193Z,0
2018-02-21T05:38:39.847Z,0
2018-02-21T05:39:41.489Z,0
2018-02-21T05:40:43.138Z,0
2018-02-21T05:41:44.787Z,0
2018-02-21T05:42:46.445Z,0
2018-02-21T05:43:48.137Z,0
2018-02-21T05:44:49.781Z,0
2018-02-21T05:45:51.429Z,0
2018-02-21T05:46:53.066Z,0
2018-02-21T05:47:54.717Z,0
2018-02-21T05:48:56.367Z,0
2018-02-21T05:49:58.030Z,0
2018-02-21T05:50:59.676Z,0
2018-02-21T05:52:01.325Z,4
2018-02-21T05:53:02.978Z,4
2018-02-21T05:54:04.615Z,0
2018-02-21T05:55:06.318Z,4
2018-02-21T05:56:07.976Z,0
2018-02-21T05:57:09.626Z,4
2018-02-21T05:58:11.277Z,4
2018-02-21T05:59:12.940Z,4
2018-02-21T06:00:14.576Z,8
2018-02-21T06:01:16.230Z,8
2018-02-21T06:02:17.877Z,8
2018-02-21T06:03:19.523Z,16
2018-02-21T06:04:21.169Z,16
2018-02-21T06:05:22.828Z,20
2018-02-21T06:06:24.468Z,24
2018-02-21T06:07:26.123Z,28
2018-02-21T06:08:27.778Z,36
2018-02-21T06:09:29.429Z,40
2018-02-21T06:10:31.075Z,48
2018-02-21T06:11:32.768Z,56
2018-02-21T06:12:34.426Z,68
2018-02-21T06:13:36.072Z,80
2018-02-21T06:14:37.718Z,92
2018-02-21T06:15:39.404Z,108
2018-02-21T06:16:41.049Z,124
2018-02-21T06:17:42.696Z,144
2018-02-21T06:18:44.349Z,168
2018-02-21T06:19:46.002Z,192
2018-02-21T06:20:47.660Z,220
2018-02-21T06:21:49.308Z,244
2018-02-21T06:22:50.962Z,276
2018-02-21T06:23:52.671Z,308
2018-02-21T06:24:54.321Z,340
2018-02-21T06:25:55.967Z,376
2018-02-21T06:26:57.622Z,412
2018-02-21T06:27:59.279Z,452
2018-02-21T06:29:01.027Z,492
2018-02-21T06:30:02.680Z,536
2018-02-21T06:31:04.331Z,580
2018-02-21T06:32:05.983Z,628
2018-02-21T06:33:07.630Z,680
2018-02-21T06:34:09.282Z,740
2018-02-21T06:35:10.993Z,800
2018-02-21T06:36:14.643Z,868
2018-02-21T06:37:16.311Z,952
2018-02-21T06:38:17.959Z,1044
2018-02-21T06:39:19.646Z,1136
2018-02-21T06:40:21.295Z,1240
2018-02-21T06:41:22.950Z,1344
2018-02-21T06:42:24.597Z,1448
2018-02-21T06:43:26.280Z,1548
2018-02-21T06:44:27.919Z,1648
2018-02-21T06:45:29.571Z,1744
2018-02-21T06:46:31.222Z,1832
2018-02-21T06:47:32.890Z,1924
2018-02-21T06:48:34.552Z,2012
2018-02-21T06:49:36.194Z,2104
2018-02-21T06:50:37.841Z,2192
2018-02-21T06:51:39.484Z,2284
2018-02-21T06:52:41.139Z,2376
2018-02-21T06:53:42.799Z,2472
2018-02-21T06:54:44.454Z,2572
2018-02-21T06:55:46.105Z,2676
2018-02-21T07:01:56.493Z,3188
2018-02-21T07:02:58.139Z,3300
2018-02-21T07:03:59.784Z,3416
2018-02-21T07:05:01.429Z,3524
2018-02-21T07:06:03.079Z,3556
2018-02-21T07:07:04.744Z,3548
2018-02-21T07:08:06.396Z,3672
2018-02-21T07:09:08.049Z,3804
2018-02-21T07:10:09.711Z,3632
2018-02-21T07:11:11.341Z,3416
2018-02-21T07:12:12.983Z,3400
2018-02-21T07:13:14.646Z,3536
2018-02-21T07:14:16.305Z,3636
2018-02-21T07:15:17.973Z,3880
2018-02-21T07:16:19.690Z,4264
2018-02-21T07:17:21.350Z,4820
2018-02-21T07:18:22.994Z,5316
2018-02-21T07:19:24.652Z,5572
2018-02-21T07:20:26.318Z,5560
2018-02-21T07:21:27.971Z,5612
2018-02-21T07:22:29.625Z,5652
2018-02-21T07:23:31.288Z,5728
2018-02-21T07:24:32.938Z,5844
2018-02-21T07:25:34.580Z,5992
2018-02-21T07:26:36.233Z,6140
2018-02-21T07:27:37.884Z,6416
2018-02-21T07:28:39.533Z,6832
2018-02-21T07:29:41.189Z,7388
2018-02-21T07:30:42.870Z,7716
2018-02-21T07:31:44.524Z,8080
2018-02-21T07:32:46.178Z,8428
2018-02-21T07:33:47.834Z,8604
2018-02-21T07:34:49.490Z,8772
2018-02-21T07:35:51.137Z,8888
2018-02-21T07:36:52.809Z,9008
2018-02-21T07:37:54.458Z,9064
2018-02-21T07:38:56.112Z,8852
2018-02-21T07:39:57.759Z,8888
2018-02-21T07:40:59.422Z,8976
2018-02-21T07:42:01.142Z,8968
2018-02-21T07:43:02.796Z,8724
2018-02-21T07:44:04.448Z,8408
2018-02-21T07:45:06.111Z,8092
2018-02-21T07:46:07.765Z,8492
2018-02-21T07:47:09.423Z,9692
2018-02-21T07:48:11.082Z,10716
2018-02-21T07:49:12.740Z,11624
2018-02-21T07:50:14.388Z,11792
2018-02-21T07:51:16.109Z,12120
2018-02-21T07:52:17.784Z,12284
2018-02-21T07:53:19.437Z,13628
2018-02-21T07:54:21.104Z,15308
2018-02-21T07:55:22.798Z,17024
2018-02-21T07:56:24.464Z,18880
2018-02-21T07:57:26.123Z,21600
2018-02-21T07:58:27.776Z,24800
2018-02-21T07:59:29.443Z,26080
2018-02-21T08:00:31.106Z,27296
2018-02-21T08:01:32.760Z,26272
2018-02-21T08:02:34.418Z,28800
2018-02-21T08:03:36.076Z,32672
2018-02-21T08:04:37.963Z,38400
2018-02-21T08:05:39.627Z,49280
2018-02-21T08:06:41.290Z,60224
2018-02-21T08:07:42.945Z,68896
2018-02-21T08:08:44.617Z,75488
2018-02-21T08:09:46.337Z,72544
2018-02-21T08:10:48.212Z,61760
2018-02-21T08:11:49.910Z,50560
2018-02-21T08:12:51.559Z,45824
2018-02-21T08:13:53.213Z,44352
2018-02-21T08:14:54.866Z,42944
2018-02-21T08:15:56.532Z,40064
2018-02-21T08:16:58.235Z,38624
2018-02-21T08:17:59.920Z,35680
2018-02-21T08:19:01.571Z,38112
2018-02-21T08:20:03.234Z,39808
2018-02-21T08:21:04.902Z,35392
2018-02-21T08:22:06.550Z,30688
2018-02-21T08:23:08.221Z,30912
2018-02-21T08:24:09.871Z,33824
2018-02-21T08:25:11.530Z,33344
2018-02-21T08:26:13.206Z,32992
2018-02-21T08:27:14.863Z,33280
2018-02-21T08:28:16.582Z,33760
2018-02-21T08:29:18.185Z,33280
2018-02-21T08:30:19.843Z,32896
2018-02-21T08:31:21.501Z,32576
2018-02-21T08:32:23.161Z,32896
2018-02-21T08:33:24.825Z,33504
2018-02-21T08:34:26.488Z,33696
2018-02-21T08:35:28.155Z,31712
2018-02-21T08:36:29.828Z,29856
2018-02-21T08:37:31.479Z,29280
2018-02-21T08:38:33.135Z,30912
2018-02-21T08:39:34.796Z,34592
2018-02-21T08:40:36.474Z,35232
2018-02-21T08:41:38.111Z,35168
2018-02-21T08:42:39.783Z,34592
2018-02-21T08:43:41.433Z,32512
2018-02-21T08:44:43.130Z,31072
2018-02-21T08:45:44.784Z,31936
2018-02-21T08:46:46.443Z,31680
2018-02-21T08:47:48.108Z,31488
2018-02-21T08:48:49.772Z,32832
2018-02-21T08:49:51.441Z,31872
2018-02-21T08:50:53.097Z,32480
2018-02-21T08:51:54.800Z,32320
2018-02-21T08:52:56.424Z,32512
2018-02-21T08:53:58.088Z,32864
2018-02-21T08:54:59.755Z,31808
2018-02-21T08:56:01.418Z,31680
2018-02-21T08:57:03.089Z,32352
2018-02-21T08:58:04.751Z,32736
2018-02-21T08:59:06.420Z,33664
2018-02-21T09:00:08.100Z,34464
2018-02-21T09:01:09.785Z,36448
2018-02-21T09:02:11.446Z,35168
2018-02-21T09:03:13.122Z,33376
2018-02-21T09:04:14.785Z,31744
2018-02-21T09:05:16.445Z,31744
2018-02-21T09:06:18.106Z,32032
2018-02-21T09:07:19.775Z,33056
2018-02-21T09:08:21.418Z,35072
2018-02-21T09:09:23.080Z,35488
2018-02-21T09:10:24.746Z,34848
2018-02-21T09:11:26.423Z,35328
2018-02-21T09:12:28.083Z,35904
2018-02-21T09:13:29.741Z,38688
2018-02-21T09:14:31.466Z,42656
2018-02-21T09:15:33.132Z,45920
2018-02-21T09:16:34.846Z,47104
2018-02-21T09:17:36.460Z,46240
2018-02-21T09:18:38.135Z,47776
2018-02-21T09:19:39.787Z,47968
2018-02-21T09:20:41.446Z,47744
2018-02-21T09:21:43.106Z,46272
2018-02-21T09:22:44.772Z,41920
2018-02-21T09:23:46.428Z,37824
2018-02-21T09:24:48.096Z,33120
2018-02-21T09:25:49.761Z,30880
2018-02-21T09:26:51.427Z,29952
2018-02-21T09:27:53.139Z,29408
2018-02-21T09:28:54.798Z,29344
2018-02-21T09:29:56.466Z,28672
2018-02-21T09:30:58.128Z,28416
2018-02-21T09:31:59.791Z,27424
2018-02-21T09:33:01.457Z,26944
2018-02-21T09:34:03.126Z,26784
2018-02-21T09:35:04.778Z,26528
2018-02-21T09:36:06.439Z,27200
2018-02-21T09:37:08.104Z,27552
2018-02-21T09:38:09.768Z,27648
2018-02-21T09:39:11.500Z,27488
2018-02-21T09:40:13.177Z,28352
2018-02-21T09:41:14.843Z,30144
2018-02-21T09:42:16.509Z,31008
2018-02-21T09:43:18.172Z,33024
2018-02-21T09:44:19.853Z,36352
2018-02-21T09:45:21.528Z,40640
2018-02-21T09:46:23.195Z,42944
2018-02-21T09:47:24.856Z,43040
2018-02-21T09:48:26.515Z,40064
2018-02-21T09:49:28.184Z,40000
2018-02-21T09:50:29.847Z,39104
2018-02-21T09:51:31.496Z,39136
2018-02-21T09:52:33.161Z,41312
2018-02-21T09:53:34.819Z,40960
2018-02-21T09:54:36.484Z,40704
2018-02-21T09:55:38.138Z,41504
2018-02-21T09:56:39.812Z,42016
2018-02-21T09:57:41.468Z,42112
2018-02-21T09:58:43.128Z,42496
2018-02-21T09:59:44.783Z,41184
2018-02-21T10:00:46.448Z,39040
2018-02-21T10:01:48.112Z,38592
2018-02-21T10:02:49.768Z,38336
2018-02-21T10:03:51.424Z,39072
2018-02-21T10:04:53.090Z,40608
2018-02-21T10:05:54.757Z,42112
2018-02-21T10:06:56.428Z,44672
2018-02-21T10:07:58.091Z,42400
2018-02-21T10:08:59.748Z,43008
2018-02-21T10:10:01.420Z,44384
2018-02-21T10:11:03.087Z,47616
2018-02-21T10:12:04.781Z,46784
2018-02-21T10:13:06.496Z,48416
2018-02-21T10:14:08.152Z,49792
2018-02-21T10:15:09.838Z,50112
2018-02-21T10:16:11.483Z,50016
2018-02-21T10:17:13.169Z,50592
2018-02-21T10:18:14.843Z,53664
2018-02-21T10:19:16.518Z,53920
2018-02-21T10:20:18.190Z,52960
2018-02-21T10:21:19.857Z,52768
2018-02-21T10:22:21.521Z,56480
2018-02-21T10:23:23.203Z,55872
2018-02-21T10:24:24.864Z,54560
2018-02-21T10:25:26.636Z,54944
2018-02-21T10:26:28.402Z,53824
2018-02-21T10:27:30.077Z,53600
2018-02-21T10:28:31.737Z,56000
2018-02-21T10:29:33.396Z,59392
2018-02-21T10:30:35.073Z,59040
2018-02-21T10:31:36.824Z,55264
2018-02-21T10:32:38.476Z,57120
2018-02-21T10:33:40.138Z,60864
2018-02-21T10:34:41.848Z,61184
2018-02-21T10:35:43.513Z,59168
2018-02-21T10:36:45.172Z,57632
2018-02-21T10:37:46.838Z,55616
2018-02-21T10:38:48.508Z,55776
2018-02-21T10:39:50.158Z,57536
2018-02-21T10:40:51.827Z,56096
2018-02-21T10:41:53.480Z,54976
2018-02-21T10:42:55.147Z,56128
2018-02-21T10:43:56.813Z,55040
2018-02-21T10:44:58.487Z,55232
2018-02-21T10:46:00.173Z,59072
2018-02-21T10:47:01.832Z,61792
2018-02-21T10:48:03.532Z,61792
2018-02-21T10:49:05.186Z,59808
2018-02-21T10:50:06.846Z,57632
2018-02-21T10:51:08.509Z,57664
2018-02-21T10:52:10.187Z,57248
2018-02-21T10:53:11.847Z,57984
2018-02-21T10:54:13.513Z,59744
2018-02-21T10:55:15.172Z,60672
2018-02-21T11:01:34.279Z,61184
2018-02-21T11:02:35.932Z,60544
2018-02-21T11:03:37.594Z,58048
2018-02-21T11:04:39.253Z,56160
2018-02-21T11:05:40.924Z,55712
2018-02-21T11:06:42.607Z,55936
2018-02-21T11:07:44.269Z,53568
2018-02-21T11:08:45.934Z,53280
2018-02-21T11:09:47.593Z,53312
2018-02-21T11:10:49.255Z,50688
2018-02-21T11:11:50.917Z,49152
2018-02-21T11:12:52.575Z,49056
2018-02-21T11:13:54.236Z,51168
2018-02-21T11:14:55.894Z,50656
2018-02-21T11:15:57.564Z,47488
2018-02-21T11:16:59.228Z,45792
2018-02-21T11:18:00.903Z,45952
2018-02-21T11:19:02.529Z,45824
2018-02-21T11:20:04.190Z,45952
2018-02-21T11:21:05.850Z,43520
2018-02-21T11:22:07.513Z,43296
2018-02-21T11:23:09.182Z,42144
2018-02-21T11:24:10.840Z,41344
2018-02-21T11:25:12.501Z,42048
2018-02-21T11:26:14.168Z,40832
2018-02-21T11:27:15.830Z,40768
2018-02-21T11:28:17.495Z,40224
2018-02-21T11:29:19.160Z,39104
2018-02-21T11:30:20.826Z,39072
2018-02-21T11:31:22.498Z,38432
2018-02-21T11:32:24.164Z,39296
2018-02-21T11:33:25.824Z,39904
2018-02-21T11:34:27.493Z,38656
2018-02-21T11:35:29.158Z,37792
2018-02-21T11:36:30.824Z,37952
2018-02-21T11:37:32.488Z,37824
2018-02-21T11:38:34.150Z,39776
2018-02-21T11:39:35.816Z,43776
2018-02-21T11:40:37.472Z,45120
2018-02-21T11:41:39.134Z,47872
2018-02-21T11:42:40.804Z,49312
2018-02-21T11:43:42.468Z,50080
2018-02-21T11:44:44.161Z,47840
2018-02-21T11:45:45.814Z,43840
2018-02-21T11:46:47.475Z,40000
2018-02-21T11:47:49.157Z,36608
2018-02-21T11:48:50.812Z,31872
2018-02-21T11:49:52.477Z,28480
2018-02-21T11:50:54.152Z,27168
2018-02-21T11:51:55.808Z,26816
2018-02-21T11:52:57.469Z,26816
2018-02-21T11:53:59.131Z,26880
2018-02-21T11:55:00.789Z,27360
2018-02-21T11:56:02.445Z,27936
2018-02-21T11:57:04.114Z,28320
2018-02-21T11:58:05.791Z,28928
2018-02-21T11:59:07.443Z,29984
2018-02-21T12:00:09.106Z,31456
2018-02-21T12:01:10.775Z,32448
2018-02-21T12:02:12.431Z,33120
2018-02-21T12:03:14.109Z,33760
2018-02-21T12:04:15.800Z,33632
2018-02-21T12:05:17.470Z,34944
2018-02-21T12:06:19.137Z,38784
2018-02-21T12:07:20.805Z,46080
2018-02-21T12:08:22.468Z,54368
2018-02-21T12:09:24.135Z,63616
2018-02-21T12:10:25.800Z,77696
2018-02-21T12:11:27.492Z,85568
2018-02-21T12:12:29.692Z,92800
2018-02-21T12:13:31.720Z,92544
2018-02-21T12:14:33.380Z,87232
2018-02-21T12:15:35.039Z,76960
2018-02-21T12:16:36.702Z,70464
2018-02-21T12:17:38.383Z,70080
2018-02-21T12:18:40.044Z,66016
2018-02-21T12:19:41.723Z,62592
2018-02-21T12:20:43.665Z,58336
2018-02-21T12:21:45.305Z,52256
2018-02-21T12:22:46.961Z,47968
2018-02-21T12:23:48.629Z,43776
2018-02-21T12:24:50.287Z,40352
2018-02-21T12:25:51.961Z,38720
2018-02-21T12:26:53.624Z,37696
2018-02-21T12:27:55.293Z,39680
2018-02-21T12:28:56.956Z,41056
2018-02-21T12:29:58.618Z,42400
2018-02-21T12:31:00.276Z,40640
2018-02-21T12:32:01.943Z,38176
2018-02-21T12:33:03.613Z,37088
2018-02-21T12:34:05.281Z,31584
2018-02-21T12:35:06.976Z,30368
2018-02-21T12:36:08.635Z,26464
2018-02-21T12:37:10.297Z,15816
2018-02-21T12:38:11.958Z,13404
2018-02-21T12:39:13.617Z,13032
2018-02-21T12:40:15.285Z,13036
2018-02-21T12:41:17.178Z,13592
2018-02-21T12:42:18.838Z,19232
2018-02-21T12:43:20.499Z,32224
2018-02-21T12:44:22.159Z,35296
2018-02-21T12:45:24.003Z,31744
2018-02-21T12:46:26.310Z,27296
2018-02-21T12:47:28.007Z,25216
2018-02-21T12:48:29.691Z,24448
2018-02-21T12:49:31.444Z,23456
2018-02-21T12:50:33.200Z,22944
2018-02-21T12:51:34.876Z,22240
2018-02-21T12:52:36.542Z,21536
2018-02-21T12:53:38.221Z,21376
2018-02-21T12:54:39.893Z,21280
2018-02-21T12:55:41.558Z,21056
2018-02-21T12:56:43.217Z,21248
2018-02-21T12:57:45.035Z,21184
2018-02-21T12:58:46.698Z,20672
2018-02-21T12:59:48.364Z,20416
2018-02-21T13:00:50.037Z,20544
2018-02-21T13:01:51.704Z,20000
2018-02-21T13:02:53.379Z,19264
2018-02-21T13:03:55.201Z,18796
2018-02-21T13:04:56.859Z,19392
2018-02-21T13:05:58.581Z,18688
2018-02-21T13:07:00.234Z,18244
2018-02-21T13:08:01.926Z,18096
2018-02-21T13:09:03.568Z,17860
2018-02-21T13:10:05.227Z,18056
2018-02-21T13:11:06.892Z,17932
2018-02-21T13:12:08.551Z,18088
2018-02-21T13:13:10.216Z,18572
2018-02-21T13:14:11.938Z,19744
2018-02-21T13:15:13.602Z,19872
2018-02-21T13:16:15.263Z,19904
2018-02-21T13:17:16.945Z,20032
2018-02-21T13:18:18.662Z,18816
2018-02-21T13:19:20.281Z,18080
2018-02-21T13:20:21.957Z,17288
2018-02-21T13:21:23.615Z,16604
2018-02-21T13:22:25.277Z,16032
2018-02-21T13:23:27.007Z,15740
2018-02-21T13:24:28.676Z,15516
2018-02-21T13:25:30.344Z,15336
2018-02-21T13:26:32.012Z,15292
2018-02-21T13:27:33.677Z,15168
2018-02-21T13:28:35.341Z,15020
2018-02-21T13:29:37.009Z,14888
2018-02-21T13:30:38.670Z,14804
2018-02-21T13:31:40.368Z,14796
2018-02-21T13:32:42.037Z,14756
2018-02-21T13:33:43.690Z,14668
2018-02-21T13:34:45.346Z,14784
2018-02-21T13:35:47.015Z,14848
2018-02-21T13:36:48.713Z,14888
2018-02-21T13:37:50.381Z,15096
2018-02-21T13:38:52.053Z,14932
2018-02-21T13:39:53.716Z,14828
2018-02-21T13:40:55.411Z,16040
2018-02-21T13:41:57.064Z,15688
2018-02-21T13:42:58.758Z,16908
2018-02-21T13:44:00.637Z,17224
2018-02-21T13:45:02.303Z,18160
2018-02-21T13:46:03.971Z,18752
2018-02-21T13:47:05.636Z,18208
2018-02-21T13:48:07.298Z,14880
2018-02-21T13:49:08.963Z,14252
2018-02-21T13:50:10.630Z,14960
2018-02-21T13:51:12.299Z,14644
2018-02-21T13:52:13.967Z,14288
2018-02-21T13:53:15.627Z,14036
2018-02-21T13:54:17.297Z,13920
2018-02-21T13:55:18.953Z,14540
2018-02-21T13:56:20.611Z,15772
2018-02-21T13:57:22.282Z,15848
2018-02-21T13:58:23.967Z,13704
2018-02-21T13:59:25.630Z,13972
2018-02-21T14:00:27.294Z,15796
2018-02-21T14:01:28.957Z,16664
2018-02-21T14:02:30.622Z,17352
2018-02-21T14:03:32.282Z,15164
2018-02-21T14:04:33.946Z,14868
2018-02-21T14:05:35.605Z,17228
2018-02-21T14:06:37.264Z,17412
2018-02-21T14:07:38.933Z,14188
2018-02-21T14:08:40.598Z,15156
2018-02-21T14:09:42.265Z,15748
2018-02-21T14:10:43.934Z,16060
2018-02-21T14:11:45.618Z,16580
2018-02-21T14:12:47.287Z,17920
2018-02-21T14:13:48.947Z,17196
2018-02-21T14:14:50.618Z,18944
2018-02-21T14:15:52.291Z,17376
2018-02-21T14:16:53.950Z,17216
2018-02-21T14:17:55.611Z,17920
2018-02-21T14:18:57.270Z,17004
2018-02-21T14:19:58.952Z,16668
2018-02-21T14:21:00.625Z,16612
2018-02-21T14:22:02.289Z,16568
2018-02-21T14:23:03.950Z,16304
2018-02-21T14:24:05.618Z,16088
2018-02-21T14:25:07.269Z,15852
2018-02-21T14:26:08.928Z,15788
2018-02-21T14:27:10.619Z,15400